Terminal Aerodrome Forecast
Issued by NWS

Home | Current Version | Previous Version | Text Only | Print | Product List | Glossary On
Versions: 1 2 3 4 5 6 7 8 9 10 11 12 13 14 15
984
FTUS44 KMAF 052324
TAFCNM
TAF
KCNM 052324Z 0600/0624 15012G18KT P6SM SCT150 SCT250
     FM060500 15008KT P6SM SCT150 BKN250
     FM061600 15016G25KT P6SM SCT100 BKN250=

USA.gov is the U.S. government's official web portal to all federal, state and local government web resources and services.